Time;durP1;ratioP1;P1;durP2;ratioP2;P2;SDS_P1;SDS_P2;PMS_P1;PMS_P2;Temp;Humidity;BMP_temperature;BMP_pressure;BME280_temperature;BME280_humidity;BME280_pressure;Samples;Min_cycle;Max_cycle;Signal;HPM_P1;HPM_P2
2022/01/20 00:01:10;;;;;;;28.97;15.97;;;;;;;1.56;100.00;99175.00;5119103;28;20043;-78
2022/01/20 00:03:55;;;;;;;25.98;15.23;;;;;;;1.58;100.00;99164.66;5119730;28;20062;-78
2022/01/20 00:20:31;;;;;;;25.05;15.85;;;;;;;1.69;100.00;99177.56;5118723;28;20355;-78
2022/01/20 00:28:11;;;;;;;23.45;15.57;;;;;;;1.77;100.00;99152.63;5118442;28;20040;-78
2022/01/20 00:31:10;;;;;;;21.63;13.10;;;;;;;1.69;100.00;99131.97;5104073;28;20047;-78
2022/01/20 00:34:12;;;;;;;24.67;15.68;;;;;;;1.73;100.00;99132.84;5118404;28;20039;-78
2022/01/20 00:37:15;;;;;;;25.52;14.57;;;;;;;1.63;100.00;99111.31;5118987;28;20031;-78
2022/01/20 00:39:59;;;;;;;23.38;14.20;;;;;;;1.72;100.00;99123.34;5118230;28;20116;-78
2022/01/20 00:42:44;;;;;;;19.90;13.10;;;;;;;1.82;100.00;99149.19;5118874;28;20114;-78
2022/01/20 00:45:29;;;;;;;19.02;12.10;;;;;;;1.83;100.00;99127.66;5118013;28;20441;-78
2022/01/20 00:48:13;;;;;;;23.00;13.50;;;;;;;1.87;100.00;99131.09;5117234;28;20035;-79
2022/01/20 00:50:58;;;;;;;18.33;13.05;;;;;;;1.85;100.00;99133.69;5104043;28;20051;-79
2022/01/20 00:53:44;;;;;;;19.63;12.43;;;;;;;1.76;100.00;99133.69;5103614;28;20127;-78
2022/01/20 00:56:29;;;;;;;19.70;12.82;;;;;;;1.77;100.00;99113.91;5118472;28;20105;-78
2022/01/20 00:59:14;;;;;;;20.27;11.90;;;;;;;1.95;100.00;99142.31;5117973;28;20093;-77
2022/01/20 01:02:02;;;;;;;20.73;12.82;;;;;;;1.98;100.00;99149.16;5103756;28;20040;-78
2022/01/20 01:04:47;;;;;;;18.10;11.85;;;;;;;1.89;100.00;99142.31;5103333;28;20040;-78
2022/01/20 01:07:46;;;;;;;20.95;12.48;;;;;;;1.87;100.00;99131.94;5103371;28;20035;-78
2022/01/20 01:10:34;;;;;;;21.65;12.65;;;;;;;1.84;100.00;99142.28;5117671;28;20067;-77
2022/01/20 01:13:20;;;;;;;20.02;12.45;;;;;;;1.83;100.00;99134.56;5103474;28;20035;-78
2022/01/20 01:16:08;;;;;;;19.00;11.68;;;;;;;1.76;100.00;99149.19;5103189;28;20115;-78
2022/01/20 01:24:57;;;;;;;17.10;12.25;;;;;;;1.74;100.00;99130.25;5117344;28;20421;-78
2022/01/20 01:27:44;;;;;;;18.08;10.90;;;;;;;1.66;100.00;99115.59;5118030;28;20401;-78
2022/01/20 01:31:13;;;;;;;18.77;11.82;;;;;;;1.60;100.00;99122.50;5117269;28;20036;-77
2022/01/20 01:33:36;;;;;;;16.33;11.52;;;;;;;1.66;100.00;99118.19;5117179;28;20039;-78
2022/01/20 01:36:23;;;;;;;16.92;11.90;;;;;;;1.74;100.00;99119.91;5117158;28;20043;-78
2022/01/20 01:39:07;;;;;;;18.23;11.40;;;;;;;1.64;100.00;99118.19;5117239;28;20063;-79
2022/01/20 01:41:53;;;;;;;16.52;10.82;;;;;;;1.62;100.00;99119.91;5117326;28;20035;-78
2022/01/20 01:44:38;;;;;;;17.20;10.63;;;;;;;1.63;100.00;99108.75;5102713;28;20410;-79
2022/01/20 01:47:23;;;;;;;16.77;11.38;;;;;;;1.54;100.00;99098.41;5102596;28;20039;-78
2022/01/20 01:50:08;;;;;;;18.05;11.73;;;;;;;1.56;100.00;99092.41;5116839;28;20044;-78
2022/01/20 01:52:55;;;;;;;17.95;10.65;;;;;;;1.63;100.00;99103.59;5117066;28;20039;-78
2022/01/20 01:55:40;;;;;;;15.38;11.30;;;;;;;1.50;100.00;99087.22;5116641;28;20040;-78
2022/01/20 01:58:24;;;;;;;17.90;10.93;;;;;;;1.50;100.00;99079.50;5116890;28;20101;-78
2022/01/20 02:01:22;;;;;;;16.70;11.50;;;;;;;1.46;100.00;99079.47;5104064;28;20059;-79
2022/01/20 02:04:19;;;;;;;16.40;12.05;;;;;;;1.46;100.00;99077.75;5116646;28;20077;-78
2022/01/20 02:07:42;;;;;;;15.63;11.00;;;;;;;1.42;100.00;99072.59;5116581;28;20540;-78
2022/01/20 02:19:35;;;;;;;16.85;11.30;;;;;;;1.28;100.00;99057.13;5116313;28;20391;-78
2022/01/20 02:22:43;;;;;;;16.13;11.30;;;;;;;1.32;100.00;99046.78;5116195;28;20043;-78
2022/01/20 02:25:37;;;;;;;15.35;10.57;;;;;;;1.35;100.00;99045.94;5103045;28;20039;-78
2022/01/20 02:28:22;;;;;;;16.23;10.43;;;;;;;1.33;100.00;99043.38;5116100;28;20352;-78
2022/01/20 02:31:07;;;;;;;14.55;11.18;;;;;;;1.32;100.00;99030.44;5101785;28;20035;-78
2022/01/20 02:33:51;;;;;;;16.85;10.68;;;;;;;1.19;100.00;98985.72;5101783;28;20039;-78
2022/01/20 02:36:38;;;;;;;16.00;9.75;;;;;;;1.37;100.00;99021.84;5101661;28;20035;-78
2022/01/20 02:39:59;;;;;;;16.30;10.75;;;;;;;1.42;100.00;99008.09;5116057;28;20044;-77
2022/01/20 02:46:07;;;;;;;16.17;10.00;;;;;;;1.37;100.00;99008.94;5094610;28;20044;-78
2022/01/20 02:48:51;;;;;;;14.48;10.02;;;;;;;1.33;100.00;99011.50;5094520;28;20048;-78
2022/01/20 02:51:36;;;;;;;17.58;10.57;;;;;;;1.26;100.00;99002.91;5099643;28;20055;-77
2022/01/20 02:54:21;;;;;;;16.63;11.77;;;;;;;1.42;100.00;99011.50;5101410;28;20039;-77
2022/01/20 02:57:07;;;;;;;16.10;10.88;;;;;;;1.26;100.00;99002.06;5115714;28;20085;-77
2022/01/20 02:59:52;;;;;;;15.80;10.48;;;;;;;1.37;100.00;99013.25;5116009;28;20502;-78
2022/01/20 03:02:38;;;;;;;15.05;9.73;;;;;;;1.32;100.00;98997.75;5116384;28;20391;-78
2022/01/20 03:05:23;;;;;;;16.25;11.27;;;;;;;1.39;100.00;98990.88;5115729;28;20050;-78
2022/01/20 03:08:15;;;;;;;15.25;10.10;;;;;;;1.33;100.00;98975.38;5115618;28;20054;-78
2022/01/20 03:11:00;;;;;;;16.27;9.77;;;;;;;1.30;100.00;98989.19;5115168;28;20036;-77
2022/01/20 03:13:44;;;;;;;14.65;10.05;;;;;;;1.34;100.00;98979.72;5115586;28;20044;-78
2022/01/20 03:16:29;;;;;;;13.80;9.23;;;;;;;1.35;100.00;98968.53;5115612;28;20119;-78
2022/01/20 03:19:14;;;;;;;15.57;9.75;;;;;;;1.26;100.00;98968.53;5116238;28;20101;-77
2022/01/20 03:21:58;;;;;;;15.23;9.85;;;;;;;1.28;100.00;98959.94;5101154;28;20064;-78
2022/01/20 03:24:43;;;;;;;13.32;9.75;;;;;;;1.38;100.00;98964.22;5116144;28;20048;-77
2022/01/20 03:27:28;;;;;;;15.20;9.68;;;;;;;1.26;100.00;98966.81;5116155;28;20035;-78
2022/01/20 03:30:13;;;;;;;12.52;8.90;;;;;;;1.31;100.00;98980.56;5101237;28;20040;-76
2022/01/20 03:32:57;;;;;;;13.10;9.52;;;;;;;1.32;100.00;98977.13;5116356;28;20067;-76
2022/01/20 03:35:42;;;;;;;13.57;10.00;;;;;;;1.32;100.00;98979.69;5115343;28;20039;-76
2022/01/20 03:38:59;;;;;;;13.98;10.18;;;;;;;1.30;100.00;98963.38;5107013;28;20056;-76
2022/01/20 03:41:43;;;;;;;16.83;10.60;;;;;;;1.32;100.00;98976.25;5115323;28;20039;-76
2022/01/20 03:44:39;;;;;;;14.15;9.55;;;;;;;1.37;100.00;98970.25;5115235;28;20043;-76
2022/01/20 03:47:25;;;;;;;13.77;10.02;;;;;;;1.39;100.00;98968.50;5115329;28;20039;-76
2022/01/20 03:53:36;;;;;;;9.02;6.32;;;;;;;1.54;100.00;98971.94;5073698;28;20041;-76
2022/01/20 03:56:23;;;;;;;9.63;6.80;;;;;;;1.68;100.00;98970.16;5059477;28;20053;-76
2022/01/20 03:59:17;;;;;;;10.73;6.47;;;;;;;1.71;100.00;98970.16;5111681;28;20058;-76
2022/01/20 04:02:02;;;;;;;8.93;6.13;;;;;;;1.83;100.00;98977.88;5100842;28;20043;-76
2022/01/20 04:05:09;;;;;;;8.90;6.55;;;;;;;1.73;100.00;98975.34;5115265;28;20051;-76
2022/01/20 04:07:59;;;;;;;6.82;5.05;;;;;;;1.90;100.00;98981.31;5101595;28;20534;-76
2022/01/20 04:10:43;;;;;;;11.00;6.60;;;;;;;1.88;100.00;98967.53;5115069;28;20043;-76
2022/01/20 04:13:30;;;;;;;14.82;8.38;;;;;;;1.92;100.00;98958.91;5115729;28;20063;-76
2022/01/20 04:16:21;;;;;;;10.55;5.78;;;;;;;1.98;100.00;98968.34;5115086;28;20043;-76
2022/01/20 04:19:09;;;;;;;10.82;7.03;;;;;;;2.00;100.00;98969.22;5100634;28;20101;-76
2022/01/20 04:21:54;;;;;;;12.52;6.38;;;;;;;2.07;100.00;98974.34;5115067;28;20039;-76
2022/01/20 04:24:39;;;;;;;11.25;6.18;;;;;;;2.10;100.00;98965.72;5117806;28;20046;-76
2022/01/20 04:27:24;;;;;;;14.30;6.35;;;;;;;2.21;100.00;98976.88;5104384;28;20054;-77
2022/01/20 04:30:09;;;;;;;10.77;5.82;;;;;;;1.97;100.00;98954.59;5119220;28;20071;-76
2022/01/20 04:32:53;;;;;;;10.77;4.25;;;;;;;1.98;100.00;98958.00;5104269;28;20448;-76
2022/01/20 04:35:38;;;;;;;9.48;4.60;;;;;;;2.15;100.00;98968.31;5118315;28;20043;-76
2022/01/20 04:38:23;;;;;;;7.45;4.07;;;;;;;2.22;100.00;98962.25;5118354;28;20047;-76
2022/01/20 04:41:07;;;;;;;9.60;4.28;;;;;;;2.24;100.00;98960.47;5103872;28;20040;-76
2022/01/20 04:43:52;;;;;;;7.90;4.32;;;;;;;2.17;100.00;98959.66;5118249;28;20035;-76
2022/01/20 04:46:43;;;;;;;10.00;4.35;;;;;;;2.20;100.00;98959.66;5103746;28;20455;-76
2022/01/20 04:58:46;;;;;;;11.27;5.13;;;;;;;2.22;100.00;98957.06;5117922;28;20058;-76
2022/01/20 05:01:31;;;;;;;10.35;4.00;;;;;;;2.29;100.00;98967.34;5117933;28;20349;-76
2022/01/20 05:04:33;;;;;;;13.65;4.38;;;;;;;2.29;100.00;98963.91;5105740;28;20039;-77
2022/01/20 05:07:27;;;;;;;8.90;5.03;;;;;;;2.30;100.00;98957.88;5117758;28;20040;-76
2022/01/20 05:10:13;;;;;;;13.27;5.47;;;;;;;2.40;100.00;98969.88;5103344;28;20063;-76
2022/01/20 05:13:08;;;;;;;9.90;3.00;;;;;;;2.25;100.00;99042.34;5117688;28;20359;-76
2022/01/20 05:15:53;;;;;;;6.20;1.58;;;;;;;2.01;100.00;99053.59;5103746;28;20063;-76
2022/01/20 05:18:37;;;;;;;42.08;18.35;;;;;;;1.53;100.00;99058.00;5117538;28;20055;-76
2022/01/20 05:21:23;;;;;;;47.88;16.70;;;;;;;1.17;100.00;99039.06;5117488;28;20040;-76
2022/01/20 05:24:08;;;;;;;83.85;32.40;;;;;;;1.00;100.00;99036.44;5117707;28;20130;-76
2022/01/20 05:26:54;;;;;;;41.95;21.88;;;;;;;0.95;100.00;99037.31;5103123;28;20397;-77
2022/01/20 05:29:40;;;;;;;22.45;17.83;;;;;;;0.98;100.00;99006.38;5117243;28;20044;-77
2022/01/20 05:32:26;;;;;;;9.05;5.47;;;;;;;0.97;100.00;99013.22;5103103;28;20059;-76
2022/01/20 05:35:10;;;;;;;5.75;1.17;;;;;;;0.91;100.00;98996.06;5102496;28;20039;-76
2022/01/20 05:37:56;;;;;;;42.50;22.63;;;;;;;0.71;100.00;98990.00;5102966;28;20051;-77
2022/01/20 05:40:42;;;;;;;33.92;19.42;;;;;;;0.64;100.00;98999.44;5102857;28;20045;-76
2022/01/20 05:43:26;;;;;;;52.55;28.63;;;;;;;0.74;100.00;99005.47;5102652;28;20334;-77
2022/01/20 05:46:14;;;;;;;27.45;10.52;;;;;;;0.69;100.00;99008.03;5102868;28;20050;-77
2022/01/20 05:49:08;;;;;;;93.38;35.75;;;;;;;0.76;100.00;98992.59;5116874;28;20106;-77
2022/01/20 05:52:00;;;;;;;142.20;58.80;;;;;;;0.81;100.00;98999.47;5116852;28;20039;-77
2022/01/20 05:54:45;;;;;;;21.42;7.40;;;;;;;0.85;100.00;99003.78;5102459;28;20042;-77
2022/01/20 05:57:30;;;;;;;23.55;9.50;;;;;;;0.77;100.00;98994.31;5116516;28;20055;-76
2022/01/20 06:00:22;;;;;;;38.72;16.92;;;;;;;0.86;100.00;99005.50;5102631;28;20421;-77
2022/01/20 06:06:17;;;;;;;13.88;6.28;;;;;;;0.82;100.00;98998.63;5116658;28;20036;-77
2022/01/20 06:09:05;;;;;;;9.23;2.90;;;;;;;0.59;100.00;98990.84;5116522;28;20044;-77
2022/01/20 06:11:49;;;;;;;9.10;2.78;;;;;;;0.69;100.00;99000.31;5116578;28;20035;-77
2022/01/20 06:14:35;;;;;;;11.95;1.55;;;;;;;0.57;100.00;99000.28;5117088;28;20040;-76
2022/01/20 06:17:26;;;;;;;10.07;1.52;;;;;;;0.61;100.00;99016.59;5102145;28;20032;-76
2022/01/20 06:20:12;;;;;;;10.02;3.35;;;;;;;0.43;100.00;99013.13;5116434;28;20050;-76
2022/01/20 06:22:57;;;;;;;10.45;2.67;;;;;;;0.25;100.00;98997.59;5116290;28;20044;-76
2022/01/20 06:25:42;;;;;;;12.93;2.40;;;;;;;0.19;100.00;99000.16;5116305;28;20036;-76
2022/01/20 06:28:27;;;;;;;11.13;3.55;;;;;;;0.19;100.00;98995.00;5116169;28;20043;-76
2022/01/20 06:31:12;;;;;;;11.98;2.78;;;;;;;0.31;100.00;98992.47;5116288;28;20050;-76
2022/01/20 06:33:57;;;;;;;8.82;2.22;;;;;;;0.29;100.00;98990.75;5116856;28;20345;-76
2022/01/20 06:36:42;;;;;;;22.38;12.38;;;;;;;0.35;100.00;98999.34;5116062;28;20421;-77
2022/01/20 06:39:26;;;;;;;32.85;20.23;;;;;;;0.46;100.00;98992.53;5115905;28;20433;-76
2022/01/20 06:42:11;;;;;;;13.90;8.18;;;;;;;0.45;100.00;98975.34;5116194;28;20040;-77
2022/01/20 06:44:56;;;;;;;12.85;3.95;;;;;;;0.56;100.00;98990.84;5101339;28;20377;-76
2022/01/20 06:47:40;;;;;;;19.08;7.80;;;;;;;0.48;100.00;98995.09;5116026;28;20429;-76
2022/01/20 06:50:26;;;;;;;12.02;6.60;;;;;;;0.58;100.00;99002.00;5101401;28;20048;-76
2022/01/20 06:53:12;;;;;;;11.40;4.97;;;;;;;0.67;100.00;98985.69;5115660;28;20047;-77
2022/01/20 06:55:56;;;;;;;9.85;3.80;;;;;;;0.67;100.00;98977.97;5101292;28;20044;-77
2022/01/20 06:58:41;;;;;;;13.07;4.50;;;;;;;0.69;100.00;98978.84;5115646;28;20403;-77
2022/01/20 07:01:25;;;;;;;10.30;3.58;;;;;;;0.74;100.00;98973.69;5115611;28;20052;-77
2022/01/20 07:04:13;;;;;;;28.08;12.02;;;;;;;0.69;100.00;98953.91;5115395;28;20353;-77
2022/01/20 07:06:58;;;;;;;17.48;4.63;;;;;;;0.72;100.00;98944.47;5115158;28;20328;-77
2022/01/20 07:10:01;;;;;;;35.95;15.05;;;;;;;0.93;100.00;98965.94;5116046;28;20047;-77
2022/01/20 07:12:55;;;;;;;17.65;6.57;;;;;;;1.02;100.00;98962.53;5115759;28;20044;-77
2022/01/20 07:15:40;;;;;;;36.55;19.95;;;;;;;1.12;100.00;98955.66;5101184;28;20108;-76
2022/01/20 07:18:24;;;;;;;20.60;9.05;;;;;;;1.24;100.00;98968.53;5115832;28;20039;-77
2022/01/20 07:21:10;;;;;;;18.10;6.93;;;;;;;1.40;100.00;98959.91;5115594;28;20040;-77
2022/01/20 07:24:05;;;;;;;15.48;4.65;;;;;;;1.53;100.00;98960.75;5102888;28;20494;-77
2022/01/20 07:26:49;;;;;;;18.75;4.30;;;;;;;1.54;100.00;98951.28;5101506;28;20043;-77
2022/01/20 07:29:42;;;;;;;23.20;8.27;;;;;;;1.65;100.00;98957.25;5102637;28;20031;-77
2022/01/20 07:32:27;;;;;;;580.75;242.52;;;;;;;1.63;100.00;98931.47;5115775;28;20073;-77
2022/01/20 07:35:11;;;;;;;74.40;24.83;;;;;;;1.85;100.00;98937.44;5115325;28;20499;-77
2022/01/20 07:37:55;;;;;;;20.92;6.38;;;;;;;1.89;100.00;98919.34;5116180;28;20044;-77
2022/01/20 07:40:40;;;;;;;36.97;11.27;;;;;;;1.92;100.00;98914.13;5115745;28;20047;-77
2022/01/20 07:43:25;;;;;;;20.00;6.05;;;;;;;1.83;100.00;98905.56;5101450;28;20429;-78
2022/01/20 07:46:13;;;;;;;25.33;8.43;;;;;;;1.87;100.00;98903.84;5115511;28;20047;-77
2022/01/20 07:49:06;;;;;;;31.60;8.35;;;;;;;1.84;100.00;98907.28;5115057;28;20048;-77
2022/01/20 07:51:50;;;;;;;21.42;4.60;;;;;;;1.83;100.00;98902.13;5116156;28;20092;-77
2022/01/20 07:54:35;;;;;;;12.20;2.40;;;;;;;1.99;100.00;98905.50;5100856;28;20035;-77
2022/01/20 07:57:21;;;;;;;18.25;5.07;;;;;;;2.16;100.00;98906.28;5116085;28;20416;-78
2022/01/20 08:00:07;;;;;;;11.38;2.63;;;;;;;2.14;100.00;98896.81;5119554;28;20071;-77
2022/01/20 08:03:03;;;;;;;28.73;10.10;;;;;;;2.14;100.00;98900.25;5119018;28;20048;-77
2022/01/20 08:06:00;;;;;;;14.20;2.80;;;;;;;2.16;100.00;98875.28;5106290;28;20047;-77
2022/01/20 08:08:50;;;;;;;12.80;4.38;;;;;;;2.32;100.00;98876.88;5105120;28;20062;-78
2022/01/20 08:11:53;;;;;;;13.15;2.63;;;;;;;2.19;100.00;98875.25;5118815;28;20035;-77
2022/01/20 08:15:04;;;;;;;32.40;7.68;;;;;;;1.98;100.00;98849.53;5108728;28;20059;-78
2022/01/20 08:18:18;;;;;;;13.02;3.03;;;;;;;1.96;100.00;98862.47;5111853;28;20059;-78
2022/01/20 08:21:03;;;;;;;12.02;3.67;;;;;;;2.05;100.00;98859.84;5104783;28;20118;-78
2022/01/20 08:23:47;;;;;;;28.73;8.77;;;;;;;1.90;100.00;98865.09;5104802;28;20067;-77
2022/01/20 08:26:32;;;;;;;31.30;8.15;;;;;;;1.71;100.00;98881.53;5104539;28;20338;-78
2022/01/20 08:29:16;;;;;;;21.45;4.95;;;;;;;1.63;100.00;98920.28;5118358;28;20388;-77
2022/01/20 08:32:03;;;;;;;37.22;11.30;;;;;;;1.48;100.00;98962.47;5104028;28;20043;-77
2022/01/20 08:35:06;;;;;;;35.03;10.30;;;;;;;0.75;100.00;98970.22;5118326;28;20040;-76
2022/01/20 08:38:07;;;;;;;17.70;5.05;;;;;;;0.66;100.00;98964.22;5118325;28;20426;-77
2022/01/20 08:40:52;;;;;;;22.25;8.55;;;;;;;0.76;100.00;98959.94;5118127;28;20342;-77
2022/01/20 08:43:38;;;;;;;69.38;31.55;;;;;;;0.51;100.00;98950.44;5104171;28;20056;-76
2022/01/20 08:46:25;;;;;;;9.68;4.78;;;;;;;0.47;100.00;98934.97;5118119;28;20369;-75
2022/01/20 08:49:09;;;;;;;19.42;6.55;;;;;;;0.51;100.00;98919.53;5118035;28;20036;-77
2022/01/20 08:52:03;;;;;;;14.80;6.72;;;;;;;0.58;100.00;98927.25;5117979;28;20444;-76
2022/01/20 08:54:50;;;;;;;23.08;10.02;;;;;;;0.51;100.00;98929.84;5104296;28;20043;-77
2022/01/20 08:57:56;;;;;;;26.50;10.52;;;;;;;0.48;100.00;98925.53;5115712;28;20051;-77
2022/01/20 09:00:41;;;;;;;12.15;4.57;;;;;;;0.63;100.00;98922.97;5118306;28;20451;-77
2022/01/20 09:03:26;;;;;;;14.25;6.28;;;;;;;0.58;100.00;98913.50;5118846;28;20054;-76
2022/01/20 09:06:11;;;;;;;17.65;10.98;;;;;;;0.56;100.00;98917.81;5103674;28;20112;-77
2022/01/20 09:09:04;;;;;;;27.13;15.88;;;;;;;0.51;100.00;98932.41;5103692;28;20036;-76
2022/01/20 09:18:04;;;;;;;14.50;6.97;;;;;;;0.59;100.00;98941.88;5117359;28;20050;-77
2022/01/20 09:20:49;;;;;;;20.15;8.88;;;;;;;0.58;100.00;98962.47;5117610;28;20044;-77
2022/01/20 09:23:33;;;;;;;13.38;7.40;;;;;;;0.63;100.00;98969.38;5117854;28;20044;-77
2022/01/20 09:26:18;;;;;;;18.67;7.78;;;;;;;0.50;100.00;98952.16;5103465;28;20040;-77
2022/01/20 09:29:03;;;;;;;14.60;6.85;;;;;;;0.51;100.00;98974.50;5117198;28;20048;-77
2022/01/20 09:31:51;;;;;;;10.30;5.70;;;;;;;0.68;100.00;98965.09;5117190;28;20360;-77
2022/01/20 09:34:40;;;;;;;10.70;5.60;;;;;;;0.77;100.00;98987.44;5103321;28;20042;-76
2022/01/20 09:37:26;;;;;;;13.80;5.10;;;;;;;0.77;100.00;98971.97;5117604;28;20050;-76
2022/01/20 09:40:11;;;;;;;14.55;4.40;;;;;;;0.76;100.00;98982.28;5117242;28;20055;-76
2022/01/20 09:43:04;;;;;;;11.00;3.72;;;;;;;0.87;100.00;98975.41;5103498;28;20043;-76
2022/01/20 09:45:55;;;;;;;10.38;3.83;;;;;;;1.16;100.00;98985.72;5102883;28;20422;-77
2022/01/20 09:48:39;;;;;;;10.35;2.20;;;;;;;1.04;100.00;98988.31;5102441;28;20047;-76
2022/01/20 09:51:33;;;;;;;;;;;;;;;0.72;100.00;99051.03;5117210;28;20043;-77
2022/01/20 09:54:23;;;;;;;51.50;17.80;;;;;;;0.01;100.00;99033.59;5103120;28;19924;-76
2022/01/20 09:57:19;;;;;;;13.23;1.40;;;;;;;-0.36;100.00;99035.91;5116600;28;20071;-75
2022/01/20 10:00:08;;;;;;;3.85;0.88;;;;;;;-0.59;100.00;99033.19;5116929;28;20433;-76
2022/01/20 10:03:06;;;;;;;10.20;4.05;;;;;;;-0.74;100.00;99039.09;5116508;28;20071;-76
2022/01/20 10:05:53;;;;;;;5.75;2.17;;;;;;;-0.52;100.00;99025.56;5102739;28;20039;-77
2022/01/20 10:08:38;;;;;;;11.63;3.10;;;;;;;-0.44;100.00;99023.00;5116415;28;20369;-77
2022/01/20 10:11:50;;;;;;;7.53;3.65;;;;;;;-0.35;100.00;99024.81;5106383;28;20035;-75
2022/01/20 10:15:01;;;;;;;4.90;1.95;;;;;;;-0.27;100.00;99038.56;5116737;28;20058;-77
2022/01/20 10:18:11;;;;;;;7.47;2.70;;;;;;;-0.10;100.00;99030.94;5116339;28;20036;-77
2022/01/20 10:21:01;;;;;;;6.40;2.90;;;;;;;-0.01;100.00;99028.41;5116161;28;20035;-77
2022/01/20 10:24:19;;;;;;;37.85;15.23;;;;;;;-0.04;100.00;99031.81;5107845;28;20055;-77
2022/01/20 10:27:13;;;;;;;13.88;7.00;;;;;;;-0.04;100.00;99046.41;5116132;28;20454;-77
2022/01/20 10:30:11;;;;;;;11.93;6.93;;;;;;;-0.08;100.00;99034.38;5102852;28;20450;-77
2022/01/20 10:32:58;;;;;;;8.18;2.92;;;;;;;0.03;100.00;99031.84;5116539;28;20040;-78
2022/01/20 10:35:44;;;;;;;9.65;2.90;;;;;;;0.24;100.00;99034.53;5116052;28;20096;-78
2022/01/20 10:38:56;;;;;;;16.48;5.88;;;;;;;-0.04;100.00;99036.97;5115932;28;20461;-77
2022/01/20 10:41:40;;;;;;;12.73;4.88;;;;;;;-0.13;100.00;99024.06;5116026;28;20058;-77
2022/01/20 10:44:39;;;;;;;9.32;2.75;;;;;;;0.25;100.00;99056.00;5116364;28;20088;-77
2022/01/20 10:47:33;;;;;;;18.88;7.13;;;;;;;0.33;100.00;99051.75;5115732;28;20040;-77
2022/01/20 10:50:24;;;;;;;8.27;3.08;;;;;;;0.39;100.00;99024.31;5101711;28;20330;-80
2022/01/20 10:53:19;;;;;;;28.90;11.45;;;;;;;0.74;100.00;99032.97;5115775;28;20063;-83
2022/01/20 10:56:06;;;;;;;55.60;22.17;;;;;;;1.02;100.00;99045.06;5101223;28;20361;-82
2022/01/20 10:58:53;;;;;;;38.35;17.00;;;;;;;1.05;100.00;99042.47;5101794;28;20051;-82
2022/01/20 11:01:37;;;;;;;41.05;18.35;;;;;;;1.02;100.00;99034.75;5116636;28;20417;-83
2022/01/20 11:04:22;;;;;;;8.82;3.17;;;;;;;0.93;100.00;99034.72;5101627;28;20044;-80
2022/01/20 11:07:08;;;;;;;12.38;5.65;;;;;;;0.87;100.00;99056.19;5115571;28;20425;-81
2022/01/20 11:10:04;;;;;;;9.20;3.40;;;;;;;0.99;100.00;99037.31;5101411;28;20035;-81
2022/01/20 11:13:09;;;;;;;8.55;2.83;;;;;;;1.15;100.00;99053.66;5116196;28;20044;-81
2022/01/20 11:15:57;;;;;;;5.68;2.22;;;;;;;1.13;100.00;99040.75;5115565;28;20067;-82
2022/01/20 11:18:42;;;;;;;26.55;7.70;;;;;;;1.17;100.00;99047.66;5101561;28;20115;-82
2022/01/20 11:21:27;;;;;;;22.50;10.68;;;;;;;1.38;100.00;99039.03;5115420;28;20036;-82
2022/01/20 11:24:24;;;;;;;20.58;7.88;;;;;;;1.58;100.00;99023.53;5115380;28;20043;-83
2022/01/20 11:27:43;;;;;;;23.60;11.25;;;;;;;1.51;100.00;99057.13;5107045;28;20429;-83
2022/01/20 11:31:08;;;;;;;43.92;16.67;;;;;;;1.51;100.00;99039.91;5101641;28;20047;-82
2022/01/20 11:34:13;;;;;;;23.20;10.45;;;;;;;1.61;100.00;99039.03;5119832;28;20031;-83
2022/01/20 11:37:07;;;;;;;53.85;20.05;;;;;;;1.63;100.00;99034.72;5120719;28;20039;-84
2022/01/20 11:39:53;;;;;;;;;;;;;;;1.55;100.00;99044.19;5119848;28;20047;-83
2022/01/20 11:42:38;;;;;;;12.65;3.25;;;;;;;1.45;100.00;99050.22;5104955;28;20245;-82
2022/01/20 11:45:25;;;;;;;12.20;3.28;;;;;;;1.31;100.00;99054.53;5119913;28;20040;-83
2022/01/20 11:48:21;;;;;;;21.50;9.05;;;;;;;1.43;100.00;99051.09;5105475;28;20118;-83
2022/01/20 11:51:08;;;;;;;12.70;5.65;;;;;;;1.37;100.00;99045.06;5120471;28;20097;-84
2022/01/20 11:53:58;;;;;;;9.00;3.60;;;;;;;1.28;100.00;99045.06;5120481;28;20040;-82
2022/01/20 11:56:44;;;;;;;9.93;4.15;;;;;;;1.02;100.00;99039.91;5118901;28;20460;-82
2022/01/20 11:59:40;;;;;;;10.38;5.47;;;;;;;1.09;100.00;99054.50;5119828;28;20079;-83
2022/01/20 12:02:37;;;;;;;15.18;4.05;;;;;;;1.19;100.00;99055.38;5119539;28;20040;-83
2022/01/20 12:05:31;;;;;;;6.18;2.13;;;;;;;1.23;100.00;99041.63;5105752;28;20051;-82
2022/01/20 12:09:13;;;;;;;11.80;3.55;;;;;;;1.56;100.00;99065.69;5114076;28;20062;-82
2022/01/20 12:11:57;;;;;;;16.63;5.20;;;;;;;1.54;100.00;99077.75;5114576;28;20055;-82
2022/01/20 12:14:42;;;;;;;47.05;20.25;;;;;;;1.66;100.00;99067.44;5119724;28;20096;-83
2022/01/20 12:17:26;;;;;;;10.20;5.78;;;;;;;1.50;100.00;99051.09;5119232;28;20422;-83
2022/01/20 12:20:11;;;;;;;7.47;1.98;;;;;;;1.40;100.00;99055.41;5118663;28;20044;-81
2022/01/20 12:22:57;;;;;;;8.93;2.72;;;;;;;1.22;100.00;99051.94;5118932;28;20111;-83
2022/01/20 12:25:41;;;;;;;5.47;2.47;;;;;;;1.08;100.00;99057.09;5118608;28;20050;-83
2022/01/20 12:28:25;;;;;;;49.75;23.60;;;;;;;1.12;100.00;99033.88;5118680;28;20048;-82
2022/01/20 12:31:12;;;;;;;37.20;22.23;;;;;;;0.87;100.00;99045.03;5119011;28;20051;-82
2022/01/20 12:33:57;;;;;;;368.25;169.05;;;;;;;0.98;100.00;99069.13;5118885;28;20057;-82
2022/01/20 12:36:50;;;;;;;463.98;222.75;;;;;;;0.78;100.00;99051.03;5118368;28;20357;-81
2022/01/20 12:39:36;;;;;;;244.10;120.70;;;;;;;0.95;100.00;99061.38;5104347;28;20047;-82
2022/01/20 12:42:22;;;;;;;358.58;199.98;;;;;;;0.91;100.00;99065.69;5118198;28;20036;-80
2022/01/20 12:48:11;;;;;;;39.83;28.48;;;;;;;0.88;100.00;99062.25;5118861;28;20048;-83
2022/01/20 12:51:00;;;;;;;13.55;8.88;;;;;;;0.81;100.00;99058.75;5117884;28;20047;-82
2022/01/20 12:53:55;;;;;;;6.35;2.08;;;;;;;0.90;100.00;99057.91;5118784;28;20051;-81
2022/01/20 12:56:44;;;;;;;10.32;1.60;;;;;;;0.65;100.00;99063.03;5117886;28;20075;-83
2022/01/20 12:59:33;;;;;;;6.72;2.33;;;;;;;0.68;100.00;99068.19;5103457;28;20361;-81
2022/01/20 13:02:23;;;;;;;7.63;2.67;;;;;;;0.67;100.00;99066.47;5117758;28;20050;-81
2022/01/20 13:05:09;;;;;;;16.10;3.72;;;;;;;0.61;100.00;99048.41;5118953;28;20047;-82
2022/01/20 13:07:55;;;;;;;5.68;2.15;;;;;;;0.68;100.00;99067.31;5117630;28;20043;-82
2022/01/20 13:10:41;;;;;;;6.68;2.30;;;;;;;0.82;100.00;99063.06;5117573;28;20047;-81
2022/01/20 13:13:25;;;;;;;11.73;4.55;;;;;;;0.77;100.00;99080.25;5103735;28;20110;-82
2022/01/20 13:16:15;;;;;;;17.63;4.93;;;;;;;0.86;100.00;99076.84;5103140;28;20051;-81
2022/01/20 13:19:03;;;;;;;12.30;5.65;;;;;;;0.79;100.00;99078.53;5118133;28;20096;-82
2022/01/20 13:21:53;;;;;;;24.15;10.65;;;;;;;0.93;100.00;99078.56;5103107;28;20070;-82
2022/01/20 13:24:38;;;;;;;21.02;12.00;;;;;;;0.93;100.00;99087.16;5103618;28;20048;-81
2022/01/20 13:27:22;;;;;;;7.75;2.13;;;;;;;0.91;100.00;99081.16;5103540;28;20069;-83
2022/01/20 13:30:08;;;;;;;6.22;1.90;;;;;;;0.82;100.00;99082.84;5117577;28;20119;-82
2022/01/20 13:32:53;;;;;;;36.38;19.88;;;;;;;0.73;100.00;99077.66;5117333;28;20126;-81
2022/01/20 13:35:40;;;;;;;23.73;11.73;;;;;;;0.76;100.00;99093.13;5117743;28;20047;-81
2022/01/20 13:38:31;;;;;;;7.47;2.50;;;;;;;1.00;100.00;99102.63;5117854;28;20039;-82
2022/01/20 13:41:22;;;;;;;32.83;14.95;;;;;;;0.86;100.00;99100.03;5117383;28;20035;-82
2022/01/20 13:47:10;;;;;;;341.83;131.82;;;;;;;0.83;100.00;99090.56;5117964;28;20032;-83
2022/01/20 13:49:55;;;;;;;91.20;32.63;;;;;;;0.69;100.00;99090.53;5117498;28;20036;-82
2022/01/20 13:52:40;;;;;;;209.27;71.03;;;;;;;0.58;100.00;99083.63;5116861;28;20383;-81
2022/01/20 13:55:32;;;;;;;193.80;65.43;;;;;;;0.66;100.00;99094.81;5116688;28;20445;-82
2022/01/20 13:58:24;;;;;;;159.82;56.03;;;;;;;0.52;100.00;99101.63;5102553;28;20114;-82
2022/01/20 14:01:09;;;;;;;75.55;26.30;;;;;;;0.56;100.00;99093.06;5117673;28;20036;-81
2022/01/20 14:03:54;;;;;;;87.22;30.25;;;;;;;0.69;100.00;99074.22;5102790;28;20035;-81
2022/01/20 14:06:38;;;;;;;31.83;12.70;;;;;;;0.84;100.00;99091.44;5117063;28;20061;-82
2022/01/20 14:09:22;;;;;;;12.45;3.83;;;;;;;0.83;100.00;99095.72;5102081;28;20046;-81